createdAt,value
2016-06-26T00:00:10.823Z,1002.06
2016-06-26T00:01:10.857Z,1002.09
2016-06-26T00:02:10.885Z,1002.11
2016-06-26T00:03:10.915Z,1002.09
2016-06-26T00:04:10.942Z,1002.1
2016-06-26T00:05:10.968Z,1002.08
2016-06-26T00:06:11.001Z,1002.13
2016-06-26T00:07:11.027Z,1002.15
2016-06-26T00:08:11.058Z,1002.16
2016-06-26T00:09:11.089Z,1002.14
2016-06-26T00:10:11.115Z,1002.12
2016-06-26T00:11:11.147Z,1002.18
2016-06-26T00:12:11.178Z,1002.1
2016-06-26T00:13:11.209Z,1002.07
2016-06-26T00:14:11.239Z,1002.15
2016-06-26T00:15:11.268Z,1002.15
2016-06-26T00:16:11.295Z,1002.16
2016-06-26T00:17:11.320Z,1002.13
2016-06-26T00:18:11.354Z,1002.18
2016-06-26T00:19:11.379Z,1002.21
2016-06-26T00:20:11.417Z,1002.15
2016-06-26T00:21:11.438Z,1002.2
2016-06-26T00:22:11.472Z,1002.21
2016-06-26T00:23:11.498Z,1002.19
2016-06-26T00:24:11.530Z,1002.12
2016-06-26T00:25:11.555Z,1002.2
2016-06-26T00:26:11.585Z,1002.19
2016-06-26T00:27:11.626Z,1002.19
2016-06-26T00:28:11.644Z,1002.26
2016-06-26T00:29:11.674Z,1002.22
2016-06-26T00:30:11.705Z,1002.27
2016-06-26T00:31:11.735Z,1002.22
2016-06-26T00:32:11.759Z,1002.26
2016-06-26T00:33:11.790Z,1002.3
2016-06-26T00:34:11.826Z,1002.29
2016-06-26T00:35:11.850Z,1002.3
2016-06-26T00:36:11.881Z,1002.26
2016-06-26T00:37:11.905Z,1002.2
2016-06-26T00:38:11.941Z,1002.21
2016-06-26T00:39:11.966Z,1002.19
2016-06-26T00:40:11.992Z,1002.21
2016-06-26T00:41:12.020Z,1002.23
2016-06-26T00:42:12.051Z,1002.28
2016-06-26T00:43:12.081Z,1002.29
2016-06-26T00:44:12.116Z,1002.31
2016-06-26T00:45:12.146Z,1002.34
2016-06-26T00:46:12.170Z,1002.38
2016-06-26T00:47:12.195Z,1002.34
2016-06-26T00:48:12.238Z,1002.4
2016-06-26T00:49:12.261Z,1002.41
2016-06-26T00:50:12.281Z,1002.43
2016-06-26T00:51:12.316Z,1002.43
2016-06-26T00:52:12.339Z,1002.44
2016-06-26T00:53:12.371Z,1002.42
2016-06-26T00:54:12.403Z,1002.41
2016-06-26T00:55:12.425Z,1002.44
2016-06-26T00:56:12.456Z,1002.43
2016-06-26T00:57:12.482Z,1002.46
2016-06-26T00:58:12.521Z,1002.46
2016-06-26T00:59:12.548Z,1002.5
2016-06-26T01:00:12.572Z,1002.47
2016-06-26T01:01:12.602Z,1002.53
2016-06-26T01:02:12.629Z,1002.54
2016-06-26T01:03:12.661Z,1002.55
2016-06-26T01:04:12.698Z,1002.6
2016-06-26T01:05:12.714Z,1002.61
2016-06-26T01:06:12.747Z,1002.59
2016-06-26T01:07:12.774Z,1002.6
2016-06-26T01:08:12.799Z,1002.65
2016-06-26T01:09:12.832Z,1002.63
2016-06-26T01:10:12.863Z,1002.63
2016-06-26T01:11:12.887Z,1002.59
2016-06-26T01:12:12.917Z,1002.57
2016-06-26T01:13:12.950Z,1002.57
2016-06-26T01:14:12.974Z,1002.59
2016-06-26T01:15:12.999Z,1002.61
2016-06-26T01:16:13.030Z,1002.62
2016-06-26T01:17:13.062Z,1002.61
2016-06-26T01:18:13.088Z,1002.64
2016-06-26T01:19:13.115Z,1002.63
2016-06-26T01:20:13.145Z,1002.62
2016-06-26T01:21:13.169Z,1002.66
2016-06-26T01:22:13.200Z,1002.71
2016-06-26T01:23:13.227Z,1002.7
2016-06-26T01:24:13.255Z,1002.67
2016-06-26T01:25:13.291Z,1002.71
2016-06-26T01:26:13.316Z,1002.68
2016-06-26T01:27:13.344Z,1002.7
2016-06-26T01:28:13.374Z,1002.75
2016-06-26T01:29:13.398Z,1002.72
2016-06-26T01:30:13.431Z,1002.69
2016-06-26T01:31:13.462Z,1002.68
2016-06-26T01:32:13.490Z,1002.75
2016-06-26T01:33:13.520Z,1002.78
2016-06-26T01:34:13.544Z,1002.84
2016-06-26T01:35:13.575Z,1002.9
2016-06-26T01:36:13.602Z,1002.92
2016-06-26T01:37:13.628Z,1002.85
2016-06-26T01:38:13.659Z,1002.88
2016-06-26T01:39:13.686Z,1002.86
2016-06-26T01:40:13.712Z,1002.86
2016-06-26T01:41:13.741Z,1002.92
2016-06-26T01:42:13.775Z,1002.97
2016-06-26T01:43:13.796Z,1003
2016-06-26T01:44:13.829Z,1002.97
2016-06-26T01:45:13.861Z,1002.99
2016-06-26T01:46:13.886Z,1002.96
2016-06-26T01:47:13.910Z,1002.95
2016-06-26T01:48:13.942Z,1002.97
2016-06-26T01:49:13.971Z,1002.98
2016-06-26T01:50:13.998Z,1003.01
2016-06-26T01:51:14.020Z,1003.05
2016-06-26T01:52:14.051Z,1003.04
2016-06-26T01:53:14.083Z,1003.06
2016-06-26T01:54:14.114Z,1003.03
2016-06-26T01:55:14.146Z,1003.03
2016-06-26T01:56:14.169Z,1003.04
2016-06-26T01:57:14.196Z,1003.09
2016-06-26T01:58:14.222Z,1003.08
2016-06-26T01:59:14.250Z,1003.07
2016-06-26T02:00:14.284Z,1003.12
2016-06-26T02:01:14.308Z,1003.12
2016-06-26T02:02:14.337Z,1003.09
2016-06-26T02:03:14.366Z,1003.14
2016-06-26T02:04:14.387Z,1003.13
2016-06-26T02:05:14.417Z,1003.21
2016-06-26T02:06:14.447Z,1003.26
2016-06-26T02:07:14.476Z,1003.26
2016-06-26T02:08:14.503Z,1003.28
2016-06-26T02:09:14.536Z,1003.28
2016-06-26T02:10:14.564Z,1003.3
2016-06-26T02:11:14.586Z,1003.32
2016-06-26T02:12:14.618Z,1003.31
2016-06-26T02:13:14.644Z,1003.36
2016-06-26T02:14:14.673Z,1003.33
2016-06-26T02:15:14.703Z,1003.35
2016-06-26T02:16:14.735Z,1003.31
2016-06-26T02:17:14.760Z,1003.36
2016-06-26T02:18:14.787Z,1003.34
2016-06-26T02:19:14.824Z,1003.38
2016-06-26T02:20:14.839Z,1003.37
2016-06-26T02:21:14.866Z,1003.4
2016-06-26T02:22:14.905Z,1003.43
2016-06-26T02:23:14.927Z,1003.48
2016-06-26T02:24:14.957Z,1003.47
2016-06-26T02:25:14.977Z,1003.52
2016-06-26T02:26:15.010Z,1003.55
2016-06-26T02:27:15.037Z,1003.54
2016-06-26T02:28:15.067Z,1003.6
2016-06-26T02:29:15.090Z,1003.6
2016-06-26T02:30:15.130Z,1003.57
2016-06-26T02:31:15.150Z,1003.6
2016-06-26T02:32:15.232Z,1003.61
2016-06-26T02:33:15.207Z,1003.65
2016-06-26T02:34:15.234Z,1003.65
2016-06-26T02:35:15.262Z,1003.66
2016-06-26T02:36:15.287Z,1003.61
2016-06-26T02:37:15.338Z,1003.68
2016-06-26T02:38:15.342Z,1003.67
2016-06-26T02:39:15.375Z,1003.7
2016-06-26T02:40:15.412Z,1003.73
2016-06-26T02:41:15.447Z,1003.74
2016-06-26T02:42:15.457Z,1003.75
2016-06-26T02:43:15.485Z,1003.77
2016-06-26T02:44:15.520Z,1003.81
2016-06-26T02:45:15.538Z,1003.87
2016-06-26T02:46:15.570Z,1003.83
2016-06-26T02:47:15.603Z,1003.88
2016-06-26T02:48:15.630Z,1003.83
2016-06-26T02:49:15.652Z,1003.83
2016-06-26T02:50:15.680Z,1003.86
2016-06-26T02:51:15.708Z,1003.9
2016-06-26T02:52:15.737Z,1003.96
2016-06-26T02:53:15.764Z,1003.96
2016-06-26T02:54:15.793Z,1003.96
2016-06-26T02:55:15.824Z,1004.02
2016-06-26T02:56:15.846Z,1003.99
2016-06-26T02:57:15.878Z,1004.05
2016-06-26T02:58:15.902Z,1004.05
2016-06-26T02:59:15.930Z,1004.09
2016-06-26T03:00:15.959Z,1004.12
2016-06-26T03:01:15.986Z,1004.13
2016-06-26T03:02:16.016Z,1004.11
2016-06-26T03:03:16.047Z,1004.12
2016-06-26T03:04:16.069Z,1004.17
2016-06-26T03:05:16.098Z,1004.2
2016-06-26T03:06:16.125Z,1004.19
2016-06-26T03:07:16.157Z,1004.25
2016-06-26T03:08:16.182Z,1004.19
2016-06-26T03:09:16.210Z,1004.19
2016-06-26T03:10:16.238Z,1004.2
2016-06-26T03:11:16.266Z,1004.23
2016-06-26T03:12:16.297Z,1004.21
2016-06-26T03:13:16.317Z,1004.18
2016-06-26T03:14:16.353Z,1004.16
2016-06-26T03:15:16.372Z,1004.17
2016-06-26T03:16:16.402Z,1004.18
2016-06-26T03:17:16.433Z,1004.19
2016-06-26T03:18:16.462Z,1004.24
2016-06-26T03:19:16.484Z,1004.24
2016-06-26T03:20:16.513Z,1004.28
2016-06-26T03:21:16.540Z,1004.28
2016-06-26T03:22:16.568Z,1004.31
2016-06-26T03:23:16.597Z,1004.3
2016-06-26T03:24:16.623Z,1004.33
2016-06-26T03:25:16.651Z,1004.31
2016-06-26T03:26:16.686Z,1004.3
2016-06-26T03:27:16.706Z,1004.29
2016-06-26T03:28:16.737Z,1004.33
2016-06-26T03:29:16.760Z,1004.36
2016-06-26T03:30:16.787Z,1004.38
2016-06-26T03:31:16.825Z,1004.37
2016-06-26T03:32:16.850Z,1004.42
2016-06-26T03:33:16.870Z,1004.44
2016-06-26T03:34:16.902Z,1004.45
2016-06-26T03:35:16.930Z,1004.49
2016-06-26T03:36:16.951Z,1004.5
2016-06-26T03:37:16.984Z,1004.47
2016-06-26T03:38:17.013Z,1004.52
2016-06-26T03:39:17.037Z,1004.53
2016-06-26T03:40:17.068Z,1004.57
2016-06-26T03:41:17.090Z,1004.54
2016-06-26T03:42:17.120Z,1004.55
2016-06-26T03:43:17.148Z,1004.51
2016-06-26T03:44:17.175Z,1004.47
2016-06-26T03:45:17.205Z,1004.5
2016-06-26T03:46:17.238Z,1004.49
2016-06-26T03:47:17.255Z,1004.52
2016-06-26T03:48:17.289Z,1004.53
2016-06-26T03:49:17.312Z,1004.52
2016-06-26T03:50:17.343Z,1004.51
2016-06-26T03:51:17.366Z,1004.5
2016-06-26T03:52:17.395Z,1004.53
2016-06-26T03:53:17.423Z,1004.53
2016-06-26T03:54:17.447Z,1004.56
2016-06-26T03:55:17.479Z,1004.58
2016-06-26T03:56:17.504Z,1004.59
2016-06-26T03:57:17.530Z,1004.58
2016-06-26T03:58:17.558Z,1004.59
2016-06-26T03:59:17.586Z,1004.63
2016-06-26T04:00:17.618Z,1004.64
2016-06-26T04:01:17.640Z,1004.66
2016-06-26T04:02:17.670Z,1004.66
2016-06-26T04:03:17.696Z,1004.66
2016-06-26T04:04:17.721Z,1004.64
2016-06-26T04:05:17.746Z,1004.67
2016-06-26T04:06:17.779Z,1004.64
2016-06-26T04:07:17.801Z,1004.67
2016-06-26T04:08:17.837Z,1004.67
2016-06-26T04:09:17.857Z,1004.72
2016-06-26T04:10:17.887Z,1004.76
2016-06-26T04:11:17.913Z,1004.76
2016-06-26T04:12:17.937Z,1004.74
2016-06-26T04:13:17.969Z,1004.78
2016-06-26T04:14:17.995Z,1004.81
2016-06-26T04:15:18.020Z,1004.75
2016-06-26T04:16:18.057Z,1004.77
2016-06-26T04:17:18.079Z,1004.8
2016-06-26T04:18:18.106Z,1004.79
2016-06-26T04:19:18.138Z,1004.76
2016-06-26T04:20:18.164Z,1004.73
2016-06-26T04:21:18.189Z,1004.77
2016-06-26T04:22:18.219Z,1004.74
2016-06-26T04:23:18.241Z,1004.76
2016-06-26T04:24:18.274Z,1004.79
2016-06-26T04:25:18.299Z,1004.78
2016-06-26T04:26:18.319Z,1004.81
2016-06-26T04:27:18.347Z,1004.81
2016-06-26T04:28:18.388Z,1004.8
2016-06-26T04:29:18.405Z,1004.8
2016-06-26T04:30:18.432Z,1004.82
2016-06-26T04:31:18.455Z,1004.82
2016-06-26T04:32:18.484Z,1004.86
2016-06-26T04:33:18.512Z,1004.91
2016-06-26T04:34:18.546Z,1004.96
2016-06-26T04:35:18.571Z,1004.98
2016-06-26T04:36:18.597Z,1004.96
2016-06-26T04:37:18.620Z,1004.97
2016-06-26T04:38:18.662Z,1004.99
2016-06-26T04:39:18.673Z,1005.03
2016-06-26T04:40:18.705Z,1005.04
2016-06-26T04:41:18.733Z,1005.04
2016-06-26T04:42:18.758Z,1004.99
2016-06-26T04:43:18.788Z,1005.01
2016-06-26T04:44:18.812Z,1005.05
2016-06-26T04:45:18.837Z,1005.08
2016-06-26T04:46:18.871Z,1005.09
2016-06-26T04:47:18.903Z,1005.15
2016-06-26T04:48:18.930Z,1005.1
2016-06-26T04:49:18.949Z,1005.15
2016-06-26T04:50:18.976Z,1005.12
2016-06-26T04:51:19.006Z,1005.22
2016-06-26T04:52:19.045Z,1005.19
2016-06-26T04:53:19.063Z,1005.25
2016-06-26T04:54:19.087Z,1005.25
2016-06-26T04:55:19.115Z,1005.25
2016-06-26T04:56:19.146Z,1005.24
2016-06-26T04:57:19.166Z,1005.27
2016-06-26T04:58:19.197Z,1005.23
2016-06-26T04:59:19.221Z,1005.26
2016-06-26T05:00:19.254Z,1005.28
2016-06-26T05:01:19.280Z,1005.31
2016-06-26T05:02:19.305Z,1005.33
2016-06-26T05:03:19.332Z,1005.34
2016-06-26T05:04:19.360Z,1005.37
2016-06-26T05:05:19.391Z,1005.43
2016-06-26T05:06:19.415Z,1005.39
2016-06-26T05:07:19.444Z,1005.38
2016-06-26T05:08:19.476Z,1005.43
2016-06-26T05:09:19.506Z,1005.43
2016-06-26T05:10:19.523Z,1005.43
2016-06-26T05:11:19.549Z,1005.4
2016-06-26T05:12:19.582Z,1005.4
2016-06-26T05:13:19.606Z,1005.44
2016-06-26T05:14:19.625Z,1005.42
2016-06-26T05:15:19.697Z,1005.43
2016-06-26T05:16:19.684Z,1005.39
2016-06-26T05:17:19.726Z,1005.42
2016-06-26T05:18:19.738Z,1005.48
2016-06-26T05:19:19.794Z,1005.45
2016-06-26T05:20:19.794Z,1005.48
2016-06-26T05:21:19.822Z,1005.47
2016-06-26T05:22:19.847Z,1005.5
2016-06-26T05:23:19.871Z,1005.51
2016-06-26T05:24:19.906Z,1005.54
2016-06-26T05:25:19.937Z,1005.51
2016-06-26T05:26:19.959Z,1005.51
2016-06-26T05:27:19.987Z,1005.5
2016-06-26T05:28:20.011Z,1005.49
2016-06-26T05:29:20.040Z,1005.52
2016-06-26T05:30:20.066Z,1005.54
2016-06-26T05:31:20.099Z,1005.53
2016-06-26T05:32:20.117Z,1005.57
2016-06-26T05:33:20.158Z,1005.54
2016-06-26T05:34:20.175Z,1005.53
2016-06-26T05:35:20.214Z,1005.54
2016-06-26T05:36:20.247Z,1005.56
2016-06-26T05:37:20.264Z,1005.63
2016-06-26T05:38:20.283Z,1005.6
2016-06-26T05:39:20.308Z,1005.59
2016-06-26T05:40:20.335Z,1005.55
2016-06-26T05:41:20.366Z,1005.53
2016-06-26T05:42:20.406Z,1005.53
2016-06-26T05:43:20.420Z,1005.55
2016-06-26T05:44:20.448Z,1005.56
2016-06-26T05:45:20.470Z,1005.56
2016-06-26T05:46:20.503Z,1005.51
2016-06-26T05:47:20.529Z,1005.5
2016-06-26T05:48:20.552Z,1005.54
2016-06-26T05:49:20.580Z,1005.5
2016-06-26T05:50:20.607Z,1005.45
2016-06-26T05:51:20.639Z,1005.49
2016-06-26T05:52:20.661Z,1005.46
2016-06-26T05:53:20.695Z,1005.49
2016-06-26T05:54:20.715Z,1005.5
2016-06-26T05:55:20.748Z,1005.5
2016-06-26T05:56:20.774Z,1005.51
2016-06-26T05:57:20.800Z,1005.52
2016-06-26T05:58:20.823Z,1005.54
2016-06-26T05:59:20.849Z,1005.58
2016-06-26T06:00:20.879Z,1005.54
2016-06-26T06:01:20.902Z,1005.6
2016-06-26T06:02:20.930Z,1005.55
2016-06-26T06:03:20.966Z,1005.55
2016-06-26T06:04:20.988Z,1005.57
2016-06-26T06:05:21.044Z,1005.64
2016-06-26T06:06:21.044Z,1005.64
2016-06-26T06:07:21.068Z,1005.62
2016-06-26T06:08:21.092Z,1005.62
2016-06-26T06:09:21.123Z,1005.61
2016-06-26T06:10:21.151Z,1005.58
2016-06-26T06:11:21.176Z,1005.63
2016-06-26T06:12:21.203Z,1005.66
2016-06-26T06:13:21.234Z,1005.61
2016-06-26T06:14:21.261Z,1005.64
2016-06-26T06:15:21.286Z,1005.66
2016-06-26T06:16:21.318Z,1005.67
2016-06-26T06:17:21.350Z,1005.68
2016-06-26T06:18:21.368Z,1005.65
2016-06-26T06:19:21.394Z,1005.65
2016-06-26T06:20:21.419Z,1005.62
2016-06-26T06:21:21.454Z,1005.62
2016-06-26T06:22:21.483Z,1005.66
2016-06-26T06:23:21.518Z,1005.63
2016-06-26T06:24:21.527Z,1005.62
2016-06-26T06:25:21.561Z,1005.64
2016-06-26T06:26:21.582Z,1005.64
2016-06-26T06:27:21.606Z,1005.66
2016-06-26T06:28:21.640Z,1005.68
2016-06-26T06:29:21.671Z,1005.69
2016-06-26T06:30:21.703Z,1005.72
2016-06-26T06:31:21.723Z,1005.66
2016-06-26T06:32:21.795Z,1005.67
2016-06-26T06:33:21.779Z,1005.66
2016-06-26T06:34:21.799Z,1005.7
2016-06-26T06:35:21.830Z,1005.67
2016-06-26T06:36:21.853Z,1005.74
2016-06-26T06:37:21.878Z,1005.7
2016-06-26T06:38:21.909Z,1005.72
2016-06-26T06:39:21.940Z,1005.69
2016-06-26T06:40:21.967Z,1005.71
2016-06-26T06:41:21.992Z,1005.7
2016-06-26T06:42:22.020Z,1005.7
2016-06-26T06:43:22.046Z,1005.74
2016-06-26T06:44:22.075Z,1005.71
2016-06-26T06:45:22.103Z,1005.69
2016-06-26T06:46:22.139Z,1005.77
2016-06-26T06:47:22.169Z,1005.77
2016-06-26T06:48:22.184Z,1005.8
2016-06-26T06:49:22.202Z,1005.79
2016-06-26T06:50:22.237Z,1005.82
2016-06-26T06:51:22.265Z,1005.86
2016-06-26T06:52:22.286Z,1005.88
2016-06-26T06:53:22.313Z,1005.81
2016-06-26T06:54:22.342Z,1005.9
2016-06-26T06:55:22.378Z,1005.9
2016-06-26T06:56:22.394Z,1005.91
2016-06-26T06:57:22.419Z,1005.9
2016-06-26T06:58:22.448Z,1005.88
2016-06-26T06:59:22.472Z,1005.82
2016-06-26T07:00:22.503Z,1005.87
2016-06-26T07:01:22.528Z,1005.84
2016-06-26T07:02:22.561Z,1005.9
2016-06-26T07:03:22.585Z,1005.88
2016-06-26T07:04:22.612Z,1005.86
2016-06-26T07:05:22.650Z,1005.9
2016-06-26T07:06:22.663Z,1005.88
2016-06-26T07:07:22.688Z,1005.92
2016-06-26T07:08:22.717Z,1005.94
2016-06-26T07:09:22.744Z,1005.93
2016-06-26T07:10:22.779Z,1005.97
2016-06-26T07:11:22.802Z,1005.97
2016-06-26T07:12:22.831Z,1005.95
2016-06-26T07:13:22.854Z,1005.94
2016-06-26T07:14:22.881Z,1005.92
2016-06-26T07:15:22.911Z,1005.93
2016-06-26T07:16:22.931Z,1005.92
2016-06-26T07:17:22.958Z,1005.9
2016-06-26T07:18:22.986Z,1005.87
2016-06-26T07:19:23.017Z,1005.85
2016-06-26T07:20:23.052Z,1005.85
2016-06-26T07:21:23.071Z,1005.83
2016-06-26T07:22:23.097Z,1005.88
2016-06-26T07:23:23.122Z,1005.86
2016-06-26T07:24:23.152Z,1005.88
2016-06-26T07:25:23.181Z,1005.88
2016-06-26T07:26:23.205Z,1005.84
2016-06-26T07:27:23.230Z,1005.85
2016-06-26T07:28:23.261Z,1005.84
2016-06-26T07:29:23.286Z,1005.84
2016-06-26T07:30:23.314Z,1005.8
2016-06-26T07:31:23.336Z,1005.74
2016-06-26T07:32:23.417Z,1005.73
2016-06-26T07:33:23.401Z,1005.79
2016-06-26T07:34:23.427Z,1005.8
2016-06-26T07:35:23.445Z,1005.77
2016-06-26T07:36:23.478Z,1005.78
2016-06-26T07:37:23.508Z,1005.8
2016-06-26T07:38:23.534Z,1005.84
2016-06-26T07:39:23.555Z,1005.77
2016-06-26T07:40:23.587Z,1005.79
2016-06-26T07:41:23.610Z,1005.8
2016-06-26T07:42:23.637Z,1005.82
2016-06-26T07:43:23.671Z,1005.86
2016-06-26T07:44:23.695Z,1005.83
2016-06-26T07:45:23.725Z,1005.84
2016-06-26T07:46:23.754Z,1005.85
2016-06-26T07:47:23.773Z,1005.85
2016-06-26T07:48:23.801Z,1005.83
2016-06-26T07:49:23.834Z,1005.89
2016-06-26T07:50:23.870Z,1005.94
2016-06-26T07:51:23.887Z,1005.92
2016-06-26T07:52:23.912Z,1005.93
2016-06-26T07:53:23.941Z,1005.94
2016-06-26T07:54:23.967Z,1005.87
2016-06-26T07:55:23.993Z,1005.96
2016-06-26T07:56:24.023Z,1005.92
2016-06-26T07:57:24.051Z,1005.99
2016-06-26T07:58:24.078Z,1006.01
2016-06-26T07:59:24.110Z,1006.01
2016-06-26T08:00:24.130Z,1005.96
2016-06-26T08:01:24.159Z,1005.92
2016-06-26T08:02:24.189Z,1005.9
2016-06-26T08:03:24.251Z,1005.88
2016-06-26T08:04:24.265Z,1005.98
2016-06-26T08:05:24.271Z,1006
2016-06-26T08:06:24.299Z,1005.98
2016-06-26T08:07:24.324Z,1006
2016-06-26T08:08:24.349Z,1005.99
2016-06-26T08:09:24.374Z,1006.01
2016-06-26T08:10:24.401Z,1005.97
2016-06-26T08:11:24.446Z,1006.05
2016-06-26T08:12:24.462Z,1006.04
2016-06-26T08:13:24.487Z,1006.03
2016-06-26T08:14:24.530Z,1006.02
2016-06-26T08:15:24.546Z,1005.99
2016-06-26T08:16:24.569Z,1005.98
2016-06-26T08:17:24.602Z,1006
2016-06-26T08:18:24.627Z,1005.99
2016-06-26T08:19:24.655Z,1005.98
2016-06-26T08:20:24.685Z,1006.01
2016-06-26T08:21:24.712Z,1006.01
2016-06-26T08:22:24.740Z,1005.97
2016-06-26T08:23:24.763Z,1005.95
2016-06-26T08:24:24.795Z,1006.03
2016-06-26T08:25:24.827Z,1006.01
2016-06-26T08:26:24.849Z,1006.03
2016-06-26T08:27:24.877Z,1005.99
2016-06-26T08:28:24.901Z,1005.98
2016-06-26T08:29:24.940Z,1006.04
2016-06-26T08:30:24.959Z,1005.96
2016-06-26T08:31:24.996Z,1006.06
2016-06-26T08:32:25.016Z,1006.04
2016-06-26T08:33:25.040Z,1006.06
2016-06-26T08:34:25.074Z,1006.02
2016-06-26T08:35:25.098Z,1006.01
2016-06-26T08:36:25.122Z,1006.05
2016-06-26T08:37:25.163Z,1006.05
2016-06-26T08:38:25.187Z,1006.05
2016-06-26T08:39:25.216Z,1006.05
2016-06-26T08:40:25.240Z,1006.06
2016-06-26T08:41:25.269Z,1006.04
2016-06-26T08:42:25.317Z,1006.07
2016-06-26T08:43:25.321Z,1006.09
2016-06-26T08:44:25.355Z,1006.07
2016-06-26T08:45:25.377Z,1006.13
2016-06-26T08:46:25.408Z,1006.09
2016-06-26T08:47:25.436Z,1006.08
2016-06-26T08:48:25.469Z,1006.08
2016-06-26T08:49:25.495Z,1006.07
2016-06-26T08:50:25.522Z,1006.1
2016-06-26T08:51:25.546Z,1006.06
2016-06-26T08:52:25.580Z,1006.13
2016-06-26T08:53:25.610Z,1006.08
2016-06-26T08:54:25.633Z,1006.19
2016-06-26T08:55:25.660Z,1006.17
2016-06-26T08:56:25.689Z,1006.15
2016-06-26T08:57:25.717Z,1006.15
2016-06-26T08:58:25.754Z,1006.15
2016-06-26T08:59:25.778Z,1006.19
2016-06-26T09:00:25.803Z,1006.17
2016-06-26T09:01:25.831Z,1006.1
2016-06-26T09:02:25.866Z,1006.11
2016-06-26T09:03:25.910Z,1006.15
2016-06-26T09:04:25.920Z,1006.13
2016-06-26T09:05:25.946Z,1006.14
2016-06-26T09:06:25.979Z,1006.13
2016-06-26T09:07:26.008Z,1006.1
2016-06-26T09:08:26.033Z,1006.05
2016-06-26T09:09:26.061Z,1006.1
2016-06-26T09:10:26.094Z,1006.08
2016-06-26T09:11:26.119Z,1006.08
2016-06-26T09:12:26.150Z,1006.09
2016-06-26T09:13:26.176Z,1006.16
2016-06-26T09:14:26.205Z,1006.13
2016-06-26T09:15:26.231Z,1006.11
2016-06-26T09:16:26.265Z,1006.13
2016-06-26T09:17:26.296Z,1006.09
2016-06-26T09:18:26.322Z,1006.12
2016-06-26T09:19:26.347Z,1006.08
2016-06-26T09:20:26.381Z,1006.09
2016-06-26T09:21:26.407Z,1006.13
2016-06-26T09:22:26.442Z,1006.12
2016-06-26T09:23:26.477Z,1006.1
2016-06-26T09:24:26.510Z,1006.1
2016-06-26T09:25:26.525Z,1006.15
2016-06-26T09:26:26.564Z,1006.14
2016-06-26T09:27:26.592Z,1006.13
2016-06-26T09:28:26.618Z,1006.14
2016-06-26T09:29:26.647Z,1006.17
2016-06-26T09:30:26.675Z,1006.18
2016-06-26T09:31:26.706Z,1006.17
2016-06-26T09:32:26.735Z,1006.19
2016-06-26T09:33:26.765Z,1006.21
2016-06-26T09:34:26.794Z,1006.22
2016-06-26T09:35:26.823Z,1006.19
2016-06-26T09:36:26.851Z,1006.15
2016-06-26T09:37:26.879Z,1006.13
2016-06-26T09:38:26.911Z,1006.12
2016-06-26T09:39:26.942Z,1006.12
2016-06-26T09:40:26.971Z,1006.11
2016-06-26T09:41:27.010Z,1006.12
2016-06-26T09:42:27.032Z,1006.18
2016-06-26T09:43:27.059Z,1006.09
2016-06-26T09:44:27.093Z,1006.12
2016-06-26T09:45:27.119Z,1006.14
2016-06-26T09:46:27.153Z,1006.14
2016-06-26T09:47:27.185Z,1006.12
2016-06-26T09:48:27.208Z,1006.09
2016-06-26T09:49:27.237Z,1006.11
2016-06-26T09:50:27.271Z,1006.18
2016-06-26T09:51:27.297Z,1006.11
2016-06-26T09:52:27.337Z,1006.1
2016-06-26T09:53:27.363Z,1006.15
2016-06-26T09:54:27.394Z,1006.09
2016-06-26T09:55:27.432Z,1006.08
2016-06-26T09:56:27.460Z,1006.14
2016-06-26T09:57:27.481Z,1006.12
2016-06-26T09:58:27.511Z,1006.15
2016-06-26T09:59:27.541Z,1006.21
2016-06-26T10:00:27.578Z,1006.18
2016-06-26T10:01:27.619Z,1006.14
2016-06-26T10:02:27.631Z,1006.18
2016-06-26T10:03:27.672Z,1006.2
2016-06-26T10:04:27.705Z,1006.16
2016-06-26T10:05:27.726Z,1006.15
2016-06-26T10:06:27.757Z,1006.11
2016-06-26T10:07:27.787Z,1006.17
2016-06-26T10:08:27.823Z,1006.14
2016-06-26T10:09:27.857Z,1006.17
2016-06-26T10:10:27.878Z,1006.18
2016-06-26T10:11:27.923Z,1006.2
2016-06-26T10:12:27.941Z,1006.16
2016-06-26T10:13:27.973Z,1006.23
2016-06-26T10:14:28.011Z,1006.19
2016-06-26T10:15:28.039Z,1006.23
2016-06-26T10:16:28.064Z,1006.21
2016-06-26T10:17:28.096Z,1006.25
2016-06-26T10:18:28.127Z,1006.21
2016-06-26T10:19:28.161Z,1006.18
2016-06-26T10:20:28.203Z,1006.19
2016-06-26T10:21:28.238Z,1006.18
2016-06-26T10:22:28.256Z,1006.21
2016-06-26T10:23:28.281Z,1006.31
2016-06-26T10:24:28.319Z,1006.24
2016-06-26T10:25:28.348Z,1006.24
2016-06-26T10:26:28.374Z,1006.23
2016-06-26T10:27:28.421Z,1006.23
2016-06-26T10:28:28.444Z,1006.21
2016-06-26T10:29:28.477Z,1006.21
2016-06-26T10:30:28.510Z,1006.17
2016-06-26T10:31:28.539Z,1006.14
2016-06-26T10:32:28.574Z,1006.13
2016-06-26T10:33:28.603Z,1006.11
2016-06-26T10:34:28.631Z,1006.06
2016-06-26T10:35:28.665Z,1006.09
2016-06-26T10:36:28.697Z,1006.09
2016-06-26T10:37:28.740Z,1006.11
2016-06-26T10:38:28.759Z,1006.1
2016-06-26T10:39:28.791Z,1006.15
2016-06-26T10:40:28.823Z,1006.1
2016-06-26T10:41:28.857Z,1006.15
2016-06-26T10:42:28.886Z,1006.12
2016-06-26T10:43:28.924Z,1006.03
2016-06-26T10:44:28.946Z,1006.03
2016-06-26T10:45:28.983Z,1006.02
2016-06-26T10:46:29.013Z,1006.04
2016-06-26T10:47:29.051Z,1006.05
2016-06-26T10:48:29.073Z,1006.07
2016-06-26T10:49:29.103Z,1006.03
2016-06-26T10:50:29.157Z,1006.05
2016-06-26T10:51:29.170Z,1006.01
2016-06-26T10:52:29.205Z,1005.98
2016-06-26T10:53:29.254Z,1005.98
2016-06-26T10:54:29.261Z,1005.93
2016-06-26T10:55:29.295Z,1005.92
2016-06-26T10:56:29.332Z,1005.94
2016-06-26T10:57:29.363Z,1005.96
2016-06-26T10:58:29.397Z,1005.95
2016-06-26T10:59:29.426Z,1005.95
2016-06-26T11:00:29.464Z,1006.01
2016-06-26T11:01:29.498Z,1005.99
2016-06-26T11:02:29.527Z,1006.01
2016-06-26T11:03:29.571Z,1006.01
2016-06-26T11:04:29.604Z,1006.01
2016-06-26T11:05:29.631Z,1005.95
2016-06-26T11:06:29.658Z,1005.98
2016-06-26T11:07:29.684Z,1005.91
2016-06-26T11:08:29.732Z,1005.9
2016-06-26T11:09:29.752Z,1005.93
2016-06-26T11:10:29.780Z,1005.93
2016-06-26T11:11:29.815Z,1005.94
2016-06-26T11:12:29.849Z,1005.94
2016-06-26T11:13:29.882Z,1005.94
2016-06-26T11:14:29.919Z,1005.91
2016-06-26T11:15:29.953Z,1005.91
2016-06-26T11:16:29.987Z,1005.91
2016-06-26T11:17:30.024Z,1005.91
2016-06-26T11:18:30.064Z,1005.9
2016-06-26T11:19:30.079Z,1005.9
2016-06-26T11:20:30.111Z,1005.92
2016-06-26T11:21:30.146Z,1005.91
2016-06-26T11:22:30.179Z,1005.89
2016-06-26T11:23:30.210Z,1005.94
2016-06-26T11:24:30.243Z,1005.97
2016-06-26T11:25:30.280Z,1005.92
2016-06-26T11:26:30.313Z,1005.9
2016-06-26T11:27:30.348Z,1005.91
2016-06-26T11:28:30.378Z,1005.89
2016-06-26T11:29:30.412Z,1005.93
2016-06-26T11:30:30.444Z,1005.87
2016-06-26T11:31:30.479Z,1005.94
2016-06-26T11:32:30.512Z,1005.89
2016-06-26T11:33:30.547Z,1005.85
2016-06-26T11:34:30.578Z,1005.9
2016-06-26T11:35:30.612Z,1005.92
2016-06-26T11:36:30.642Z,1005.83
2016-06-26T11:37:30.680Z,1005.82
2016-06-26T11:38:30.711Z,1005.8
2016-06-26T11:39:30.748Z,1005.85
2016-06-26T11:40:30.785Z,1005.84
2016-06-26T11:41:30.860Z,1005.8
2016-06-26T11:42:30.851Z,1005.82
2016-06-26T11:43:30.890Z,1005.86
2016-06-26T11:44:30.928Z,1005.84
2016-06-26T11:45:30.952Z,1005.78
2016-06-26T11:46:30.990Z,1005.72
2016-06-26T11:47:31.027Z,1005.74
2016-06-26T11:48:31.053Z,1005.75
2016-06-26T11:49:31.086Z,1005.77
2016-06-26T11:50:31.123Z,1005.71
2016-06-26T11:51:31.154Z,1005.71
2016-06-26T11:52:31.190Z,1005.71
2016-06-26T11:53:31.225Z,1005.75
2016-06-26T11:54:31.258Z,1005.78
2016-06-26T11:55:31.290Z,1005.73
2016-06-26T11:56:31.327Z,1005.72
2016-06-26T11:57:31.375Z,1005.71
2016-06-26T11:58:31.395Z,1005.64
2016-06-26T11:59:31.429Z,1005.69
2016-06-26T12:00:31.460Z,1005.63
2016-06-26T12:01:31.498Z,1005.7
2016-06-26T12:02:31.534Z,1005.63
2016-06-26T12:03:31.578Z,1005.71
2016-06-26T12:04:31.600Z,1005.71
2016-06-26T12:05:31.633Z,1005.7
2016-06-26T12:06:31.669Z,1005.64
2016-06-26T12:07:31.747Z,1005.64
2016-06-26T12:08:31.747Z,1005.61